Latest Weather Observations for Troughton Island

IDD60801

Issued at 9:01 pm CST Wednesday 24 May 2017 (issued every 30 minutes, with the page automatically refreshed every 10 minutes)

About weather observations | Map of weather stations | Latest weather observations for NT | Other Formats
Station Details ID: 001007 Name: TROUGHTON ISLAND Lat: -13.75 Lon: 126.15 Height: 6.0 m
Data from the previous 72 hours. | See also: Recent months at Troughton Island
Date/Time
CST
Temp
°C
App
Temp
°C
Dew
Point
°C
Rel
Hum
%
Delta-T
°C
Wind Press
QNH
hPa
Press
MSL
hPa
Rain since
9am
mm
Dir  Spd
km/h
Gust
km/h
Spd
kts
Gust
kts
24/09:00pm 28.4 29.1 22.9 72 3.7 ENE 24 30 13 16 1013.0 1012.9 0.0
24/08:30pm 28.4 28.4 23.1 73 3.6 ENE 28 33 15 18 1012.7 1012.6 0.0
24/08:00pm 28.4 28.5 23.3 74 3.5 ENE 28 33 15 18 1012.3 1012.2 0.0
24/07:30pm 28.6 28.7 23.3 73 3.6 ENE 28 33 15 18 1011.9 1011.8 0.0
24/07:00pm 28.6 28.6 23.1 72 3.8 ENE 28 33 15 18 1011.5 1011.4 0.0
24/06:30pm 28.8 29.2 23.2 71 3.8 NE 26 32 14 17 1011.3 1011.2 0.0
24/06:00pm 29.4 29.8 23.1 69 4.3 NE 26 33 14 18 1010.9 1010.8 0.0
24/05:30pm 29.9 30.3 23.1 67 4.7 NE 26 33 14 18 1010.7 1010.6 0.0
24/05:00pm 30.5 30.1 22.4 62 5.5 NE 28 33 15 18 1010.5 1010.4 0.0
24/04:30pm 30.7 30.1 22.0 59 5.9 NE 28 33 15 18 1010.2 1010.1 0.0
24/04:00pm 30.7 30.1 22.0 59 5.9 NE 28 35 15 19 1010.3 1010.2 0.0
24/03:30pm 31.2 30.6 21.9 57 6.3 NE 28 35 15 19 1010.5 1010.4 0.0
24/03:00pm 31.6 31.8 22.0 56 6.5 ENE 24 30 13 16 1010.7 1010.6 0.0
24/02:30pm 30.9 32.6 21.7 58 6.2 NE 15 20 8 11 1011.2 1011.1 0.0
24/02:00pm 31.0 32.8 21.8 58 6.2 ENE 15 19 8 10 1011.7 1011.6 0.0
24/01:30pm 30.3 31.9 21.4 59 6.0 ENE 15 19 8 10 1012.2 1012.1 0.0
24/01:00pm 30.5 30.9 21.0 57 6.3 E 20 24 11 13 1012.6 1012.5 0.0
24/12:30pm 30.8 31.5 21.6 58 6.2 ENE 20 26 11 14 1013.1 1013.0 0.0
24/12:00pm 30.8 31.4 21.0 56 6.5 E 19 24 10 13 1013.3 1013.2 0.0
24/11:30am 30.6 31.8 21.4 58 6.2 E 17 22 9 12 1013.6 1013.5 0.0
24/11:00am 30.3 32.2 21.4 59 6.0 ESE 13 19 7 10 1013.8 1013.7 0.0
24/10:30am 29.7 31.9 21.9 63 5.3 ESE 13 17 7 9 1013.8 1013.7 0.0
24/10:00am 29.7 32.0 22.7 66 4.8 SE 15 19 8 10 1013.8 1013.7 0.0
24/09:30am 29.0 30.5 22.0 66 4.7 SE 17 20 9 11 1013.7 1013.6 0.0
24/09:00am 28.9 31.1 21.9 66 4.7 SE 13 19 7 10 1013.5 1013.4 0.0
24/08:30am 28.3 30.7 22.3 70 4.1 SSE 13 17 7 9 1013.2 1013.1 0.0
24/08:00am 27.4 29.7 22.8 76 3.1 SSE 15 17 8 9 1013.0 1012.9 0.0
24/07:30am 26.9 29.4 23.2 80 2.5 S 15 17 8 9 1012.6 1012.5 0.0
24/07:00am 26.8 29.0 22.6 78 2.8 S 15 17 8 9 1012.2 1012.1 0.0
24/06:30am 26.8 28.6 21.8 74 3.3 S 15 17 8 9 1011.9 1011.8 0.0
24/06:00am 26.6 29.1 22.4 78 2.8 SSE 13 15 7 8 1011.6 1011.5 0.0
24/05:30am 27.0 28.5 22.0 74 3.4 SSE 17 19 9 10 1011.7 1011.6 0.0
24/05:00am 26.9 29.2 22.7 78 2.8 SSE 15 19 8 10 1011.5 1011.4 0.0
24/04:30am 26.7 29.5 23.6 83 2.1 SSE 15 19 8 10 1011.7 1011.6 0.0
24/04:00am 26.6 30.2 24.3 87 1.6 S 13 15 7 8 1011.9 1011.8 0.0
24/03:30am 26.8 30.7 24.8 89 1.4 SSE 13 15 7 8 1012.1 1012.0 0.0
24/03:00am 26.9 31.1 24.7 88 1.5 SE 11 13 6 7 1012.3 1012.2 0.0
24/02:30am 26.9 31.2 24.2 85 1.9 ESE 9 11 5 6 1012.5 1012.4 0.0
24/02:00am 27.3 31.8 24.6 85 1.9 ESE 9 9 5 5 1012.8 1012.7 0.0
24/01:30am 27.7 32.5 24.5 83 2.2 ENE 7 9 4 5 1013.2 1013.1 0.0
24/01:00am 27.5 32.1 24.1 82 2.3 NE 7 11 4 6 1013.4 1013.3 0.0
24/12:30am 28.0 32.4 24.4 81 2.5 NE 9 13 5 7 1013.5 1013.4 0.0
24/12:00am 28.2 31.4 24.4 80 2.6 NE 15 19 8 10 1013.4 1013.3 0.0
 
Date/Time
CST
Temp
°C
App
Temp
°C
Dew
Point
°C
Rel
Hum
%
Delta-T
°C
Wind Press
QNH
hPa
Press
MSL
hPa
Rain since
9am
mm
Dir  Spd
km/h
Gust
km/h
Spd
kts
Gust
kts
23/11:30pm 28.3 31.5 24.3 79 2.8 NE 15 20 8 11 1013.6 1013.5 0.0
23/11:00pm 28.3 31.2 24.5 80 2.6 NE 17 20 9 11 1013.6 1013.5 0.0
23/10:30pm 28.3 30.7 24.3 79 2.8 ENE 19 20 10 11 1013.7 1013.6 0.0
23/10:00pm 28.5 31.0 24.7 80 2.7 ENE 20 24 11 13 1013.6 1013.5 0.0
23/09:30pm 28.6 30.8 24.8 80 2.7 ENE 22 26 12 14 1013.6 1013.5 0.0
23/09:00pm 28.6 31.0 25.2 82 2.4 ENE 22 28 12 15 1013.2 1013.1 0.0
23/08:30pm 28.5 31.0 25.3 83 2.2 NE 22 26 12 14 1012.7 1012.6 0.0
23/08:00pm 28.6 30.9 25.0 81 2.5 NE 22 28 12 15 1012.3 1012.2 0.0
23/07:30pm 28.7 30.9 24.9 80 2.7 NE 22 28 12 15 1012.0 1011.9 0.0
23/07:00pm 28.9 30.9 24.5 77 3.1 NE 22 28 12 15 1011.7 1011.6 0.0
23/06:30pm 29.3 31.5 24.2 74 3.5 NE 20 24 11 13 1011.4 1011.3 0.0
23/06:00pm 29.9 31.9 22.9 66 4.8 NE 17 22 9 12 1011.2 1011.1 0.0
23/05:30pm 30.0 31.9 21.4 60 5.8 NNE 13 17 7 9 1011.0 1010.9 0.0
23/05:00pm 30.1 32.0 20.6 56 6.3 NNE 11 15 6 8 1010.8 1010.7 0.0
23/04:30pm 31.0 33.3 20.6 54 6.9 NNE 9 13 5 7 1010.6 1010.5 0.0
23/04:00pm 31.6 33.4 21.2 54 7.0 NW 13 15 7 8 1010.7 1010.6 0.0
23/03:30pm 31.4 33.1 21.6 56 6.6 WNW 15 17 8 9 1010.9 1010.8 0.0
23/03:00pm 31.0 32.8 21.2 56 6.6 W 13 17 7 9 1011.1 1011.0 0.0
23/02:30pm 31.1 33.2 21.0 55 6.8 W 11 15 6 8 1011.4 1011.3 0.0
23/02:00pm 31.1 33.1 20.7 54 6.9 WSW 11 13 6 7 1011.8 1011.7 0.0
23/01:30pm 30.7 33.3 21.2 57 6.4 WSW 9 11 5 6 1012.3 1012.2 0.0
23/01:00pm 30.9 34.4 22.8 62 5.5 WSW 9 11 5 6 1012.7 1012.6 0.0
23/12:30pm 30.2 33.5 22.6 63 5.2 SSW 9 11 5 6 1013.0 1012.9 0.0
23/12:00pm 29.9 33.0 22.1 63 5.3 SSW 9 13 5 7 1013.4 1013.3 0.0
23/11:30am 29.7 32.7 22.7 66 4.8 S 11 17 6 9 1013.6 1013.5 0.0
23/11:00am 29.7 32.6 22.4 65 5.0 SSE 11 15 6 8 1014.1 1014.0 0.0
23/10:30am 29.6 31.6 21.5 61 5.4 S 13 17 7 9 1014.2 1014.1 0.0
23/10:00am 29.0 31.4 22.2 66 4.6 S 13 15 7 8 1014.3 1014.2 0.0
23/09:30am 28.7 31.4 22.2 68 4.4 S 11 13 6 7 1014.2 1014.1 0.0
23/09:00am 28.4 30.8 22.2 69 4.2 SSW 13 15 7 8 1013.8 1013.7 0.0
23/08:30am 28.0 30.9 22.5 72 3.7 SSW 11 13 6 7 1013.5 1013.4 0.0
23/08:00am 27.0 30.5 22.8 78 2.8 S 9 11 5 6 1013.2 1013.1 0.0
23/07:30am 26.3 30.1 23.4 84 2.0 SSW 9 11 5 6 1012.9 1012.8 0.0
23/07:00am 26.2 29.7 23.5 85 1.8 SSW 11 13 6 7 1012.6 1012.5 0.0
23/06:30am 26.2 30.2 23.7 86 1.7 SSW 9 13 5 7 1012.2 1012.1 0.0
23/06:00am 25.9 29.8 23.6 87 1.6 SW 9 9 5 5 1012.2 1012.1 0.0
23/05:30am 25.9 30.3 23.4 86 1.7 SSW 6 7 3 4 1012.1 1012.0 0.0
23/05:00am 25.9 30.1 23.4 86 1.7 SSW 7 9 4 5 1012.0 1011.9 0.0
23/04:30am 25.9 31.4 23.4 86 1.7 CALM 0 0 0 0 1011.9 1011.8 0.0
23/04:00am 25.8 31.1 23.1 85 1.8 CALM 0 0 0 0 1012.0 1011.9 0.0
23/03:30am 26.0 31.6 23.5 86 1.7 CALM 0 2 0 1 1012.4 1012.3 0.0
23/03:00am 26.1 30.2 23.2 84 2.0 SSE 7 9 4 5 1012.6 1012.5 0.0
23/02:30am 26.6 30.2 23.7 84 2.0 SSW 11 13 6 7 1012.8 1012.7 0.0
23/01:30am 26.1 30.2 23.0 83 2.1 SE 6 7 3 4 1013.4 1013.3 0.0
23/01:00am 26.3 30.7 23.4 84 2.0 SSE 6 7 3 4 1013.6 1013.5 0.0
23/12:30am 25.9 29.5 22.0 79 2.6 SE 6 7 3 4 1013.7 1013.6 0.0
23/12:00am 26.2 29.8 22.1 78 2.7 ENE 6 7 3 4 1013.7 1013.6 0.0
 
Date/Time
CST
Temp
°C
App
Temp
°C
Dew
Point
°C
Rel
Hum
%
Delta-T
°C
Wind Press
QNH
hPa
Press
MSL
hPa
Rain since
9am
mm
Dir  Spd
km/h
Gust
km/h
Spd
kts
Gust
kts
22/11:30pm 26.9 30.6 22.5 77 3.0 NE 7 7 4 4 1013.6 1013.5 0.0
22/11:00pm 27.4 30.9 22.1 73 3.6 E 7 9 4 5 1013.7 1013.6 0.0
22/10:30pm 27.6 30.6 21.9 71 3.8 E 9 11 5 6 1013.9 1013.8 0.0
22/10:00pm 28.1 30.5 20.9 65 4.8 E 9 13 5 7 1013.8 1013.7 0.0
22/09:30pm 28.0 29.9 19.8 61 5.3 ENE 9 11 5 6 1013.8 1013.7 0.0
22/09:00pm 27.6 30.5 19.9 63 5.0 NNE 4 6 2 3 1013.4 1013.3 0.0
22/08:30pm 27.9 30.1 19.1 58 5.7 NNE 6 7 3 4 1013.1 1013.0 0.0
22/08:00pm 28.0 30.3 19.5 60 5.5 NNE 6 7 3 4 1012.9 1012.8 0.0
22/07:30pm 28.4 30.6 19.6 59 5.7 NNE 7 7 4 4 1012.4 1012.3 0.0
22/07:00pm 28.7 30.8 19.3 56 6.1 N 7 9 4 5 1012.2 1012.1 0.0
22/06:30pm 29.1 30.8 19.4 55 6.3 N 9 13 5 7 1011.9 1011.8 0.0
22/06:00pm 29.7 30.4 18.8 52 7.0 NNW 13 15 7 8 1011.5 1011.4 0.0
22/05:30pm 30.0 30.8 19.1 52 7.1 NNW 13 15 7 8 1011.3 1011.2 0.0
22/05:00pm 30.2 30.6 18.9 50 7.3 N 15 19 8 10 1010.9 1010.8 0.0
22/04:30pm 30.5 31.0 19.2 51 7.4 NNW 15 19 8 10 1010.8 1010.7 0.0
22/04:00pm 30.7 31.7 19.4 51 7.4 NNW 13 17 7 9 1010.9 1010.8 0.0
22/03:30pm 31.0 32.2 19.0 48 7.8 NW 11 15 6 8 1011.2 1011.1 0.0
22/03:00pm 31.4 33.1 19.4 49 7.9 W 9 13 5 7 1011.5 1011.4 0.0
22/02:30pm 31.1 32.0 18.5 47 8.1 W 11 13 6 7 1011.8 1011.7 0.0
22/02:00pm 30.8 32.4 19.2 50 7.6 W 9 11 5 6 1012.1 1012.0 0.0
22/01:30pm 31.1 33.0 19.8 51 7.4 WSW 9 11 5 6 1012.6 1012.5 0.0
22/01:00pm 30.9 31.3 17.2 43 8.7 SW 11 11 6 6 1013.0 1012.9 0.0
22/12:30pm 31.0 32.8 18.7 48 8.0 S 7 11 4 6 1013.5 1013.4 0.0
22/12:00pm 30.9 32.3 18.6 48 8.0 SSE 9 13 5 7 1013.8 1013.7 0.0
22/11:30am 30.4 31.0 17.8 46 8.0 S 11 15 6 8 1014.0 1013.9 0.0
22/11:00am 30.1 30.4 17.9 48 7.8 S 13 15 7 8 1014.2 1014.1 0.0
22/10:30am 29.4 30.0 18.5 52 7.0 SSE 13 15 7 8 1014.2 1014.1 0.0
22/10:00am 28.8 29.7 18.3 53 6.7 S 11 15 6 8 1014.2 1014.1 0.0
22/09:30am 28.7 29.3 18.5 54 6.5 SSW 13 15 7 8 1013.9 1013.8 0.0
22/09:00am 28.3 29.8 19.8 60 5.5 S 11 15 6 8 1013.6 1013.5 0.0
22/08:30am 28.0 29.5 19.8 61 5.3 S 11 13 6 7 1013.4 1013.3 0.0
22/08:00am 27.2 28.6 19.5 62 5.0 S 11 13 6 7 1013.0 1012.9 0.0
22/07:30am 26.8 28.1 20.2 67 4.3 SSW 13 15 7 8 1012.5 1012.4 0.0
22/07:00am 26.6 28.3 21.6 74 3.3 SSW 15 17 8 9 1012.3 1012.2 0.0
22/06:30am 26.6 28.1 22.0 76 3.1 SSW 17 19 9 10 1012.2 1012.1 0.0
22/06:00am 26.8 28.5 21.6 73 3.5 SSW 15 19 8 10 1011.8 1011.7 0.0
22/05:30am 26.7 28.1 21.0 71 3.8 SSW 15 17 8 9 1011.6 1011.5 0.0
22/05:00am 26.8 28.6 21.1 71 3.8 SW 13 15 7 8 1011.4 1011.3 0.0
22/04:30am 26.6 28.3 21.6 74 3.3 SSW 15 17 8 9 1011.2 1011.1 0.0
22/04:00am 26.7 27.8 21.2 72 3.6 SSW 17 20 9 11 1011.2 1011.1 0.0
22/03:30am 26.8 28.2 21.8 74 3.3 SSW 17 19 9 10 1011.2 1011.1 0.0
22/03:00am 26.4 29.0 22.0 77 2.9 SW 11 15 6 8 1011.3 1011.2 0.0
22/02:30am 26.1 28.8 22.2 79 2.6 W 11 13 6 7 1011.3 1011.2 0.0
22/02:00am 26.6 29.5 22.4 78 2.8 SW 11 13 6 7 1011.8 1011.7 0.0
22/01:30am 26.5 29.3 23.0 81 2.4 SSW 13 15 7 8 1012.0 1011.9 0.0
22/01:00am 26.1 29.0 21.1 74 3.3 ESE 7 7 4 4 1012.0 1011.9 0.0
22/12:30am 27.1 29.9 21.6 72 3.7 ESE 9 11 5 6 1012.1 1012.0 0.0
22/12:00am 27.3 29.7 21.6 71 3.8 E 11 13 6 7 1012.1 1012.0 0.0
 
Date/Time
CST
Temp
°C
App
Temp
°C
Dew
Point
°C
Rel
Hum
%
Delta-T
°C
Wind Press
QNH
hPa
Press
MSL
hPa
Rain since
9am
mm
Dir  Spd
km/h
Gust
km/h
Spd
kts
Gust
kts
21/11:30pm 27.7 29.7 21.5 69 4.1 ENE 13 15 7 8 1012.1 1012.0 0.0
21/11:00pm 27.8 30.0 21.8 70 4.0 ENE 13 17 7 9 1012.1 1012.0 0.0

Other Formats:

Comma delimited format used in spreadsheet applications
http://www.bom.gov.au/fwo/IDD60801/IDD60801.94102.axf

JavaScript Object Notation format (JSON) in row-major order
http://www.bom.gov.au/fwo/IDD60801/IDD60801.94102.json